LEVT

Vitoria/Foronda Airport

Airport
ICAO code
LEVT
IATA Code
VIT
Summary
ICAO Region
EUR
ICAO Territory
Location

, Pais Vasco

Serving
Vitoria
Elevation
1682 ft
Coordinates
42° 52' 58" N , 2° 43' 28" W
Metar
Observation
LEVT 050030Z 04002KT 6000 SCT035 M01/M01 Q1014
Station
Vitoria
Date/Time
2022-12-05 00:30:00
Wind direction
40°
Wind speed
02 kts
Lowest cloud amount
scattered clouds
Temperature
-1°C
Dew point
-1°C
Humidity
100%
QNH
1014 hPa
Weather condition
n/a

Runways

Designator Length Width Surface Rops
4/22 3500 45 CON Yes/Yes

Airport map

Aerial View

SKYbrary Partners:

Safety knowledge contributed by: